PORT of SAINT MALO

Država: France Država: France (FR)
Latitude/Longitude: 48.646155° / -2.016869° Prikaži na mapi Prikaži na mapi
Vrijeme:  UTC +2
UN/LOCODE: FRSML
Brod je Trenutno u Luci: 9
Očekivani dolasci: 7

Posljednji dolasci i odlasci


Ime broda
Dolazak (UTC)
Dolazak (LT)
Isplovljenje (UTC)
Isplovljenje (LT)
Vessel Type: Tegljač,pilot itd.  LA CHEVALIERE 2014-10-01 06:36:00 2014-10-01 08:36:00 2014-10-01 14:50:00 2014-10-01 16:50:00
Vessel Type: Jahta, jedrilica  RIFIFI 2014-10-01 11:34:00 2014-10-01 13:34:00
Vessel Type: Ribarski  HERMINE 2014-10-01 10:17:00 2014-10-01 12:17:00
Vessel Type: Ribarski  LAZALAI 2014-10-01 10:11:00 2014-10-01 12:11:00
Vessel Type: Jahta, jedrilica  SEBASTIEN 6 2014-10-01 08:36:00 2014-10-01 10:36:00
Vessel Type: Ribarski  CLEMENT-THOMAS-E 2014-09-05 09:58:00 2014-09-05 11:58:00 2014-10-01 08:35:00 2014-10-01 10:35:00
Vessel Type: Ribarski  HERMINE BASTIEN 2014-09-30 18:59:00 2014-09-30 20:59:00 2014-10-01 08:31:00 2014-10-01 10:31:00
Vessel Type: Ribarski  CAP PILAR 2014-09-30 10:32:00 2014-09-30 12:32:00 2014-10-01 08:30:00 2014-10-01 10:30:00
Vessel Type: Jahta, jedrilica  RIFIFI 2014-09-21 14:06:00 2014-09-21 16:06:00 2014-10-01 08:30:00 2014-10-01 10:30:00
Vessel Type: Ribarski  LEMERAUDE 1 2014-09-26 16:51:00 2014-09-26 18:51:00 2014-10-01 08:27:00 2014-10-01 10:27:00

Očekivani dolasci


Ime broda
Scheduled Arrival (UTC)
Dolazak planiran (lokalno)
Približno vrijeme dolaska (UTC)
Približno vrijeme dolaska (lokalno)
Vessel Type: Katamaran i sl.  CONDOR RAPIDE 2014-10-01 15:00:00 2014-10-01 17:00:00 2014-10-01 14:45:00 2014-10-01 16:45:00
Vessel Type: Putnički brodovi  SEVEN SEAS VOYAGER 2014-10-02 02:00:00 2014-10-02 04:00:00 2014-10-02 01:06:00 2014-10-02 03:06:00
Vessel Type: Putnički brodovi  NAUTICA 2014-10-02 03:30:00 2014-10-02 05:30:00
Vessel Type: Putnički brodovi  BRETAGNE 2014-10-02 07:15:00 2014-10-02 09:15:00
Vessel Type: Teretni brod  ZEYNALABDIN TAGIYEV 2014-10-03 18:00:00 2014-10-03 20:00:00 2014-10-17 07:34:00 2014-10-17 09:34:00
Vessel Type: Teretni brod  TRIPLE S 2014-10-06 08:00:00 2014-10-06 10:00:00 2014-10-07 02:39:00 2014-10-07 04:39:00
Vessel Type: Teretni brod  SORMOVSKIY 3064 2014-10-09 10:00:00 2014-10-09 12:00:00

Wind Forecast


    
Vrijeme (UTC)
Brzina
Direction
Temperature
2014-10-01 15:00:00 2 knots 267° 19°C
2014-10-01 18:00:00 2 knots 37° 19°C
2014-10-01 21:00:00 4 knots 69° 19°C
2014-10-02 00:00:00 4 knots 85° 18°C
2014-10-02 03:00:00 4 knots 82° 17°C
2014-10-02 06:00:00 4 knots 83° 17°C
2014-10-02 09:00:00 3 knots 117° 18°C
2014-10-02 12:00:00 3 knots 44° 18°C
2014-10-02 15:00:00 6 knots 34° 18°C
2014-10-02 18:00:00 6 knots 35° 17°C
2014-10-02 21:00:00 5 knots 55° 18°C
2014-10-03 00:00:00 1 knots 84° 18°C
2014-10-03 03:00:00 1 knots 346° 17°C
2014-10-03 06:00:00 1 knots 55° 17°C
2014-10-03 09:00:00 1 knots 132° 16°C
2014-10-03 12:00:00 2 knots 40° 16°C
2014-10-03 15:00:00 5 knots 40° 16°C